F/V Renaissance II — FMEW — position and weather

sailwx.info

Track history (hours):
 
Tides and Currents Weather Stations Pressure Air Temp Water Temp Dewpoint Dewpoint Depression Visibility Wind Speed Wind Dir Waves Ship Positions

F/V Renaissance II

Last reported at 2014-Jul-17 06:10 UTC. Time now 2014-Jul-23 01:11 UTC.
Position N 46°30' W 001°47'.

Length 18 m.

Type: Fishing. MMSI: 228216600.

Date/timePositionNaut miles runAvg speedWind from/ knotsBaromVisibWave heightAir tempDewpointWater temp
2014-Jul-17 06:10N 46°30' W 001°47'0 0.0
2014-Jul-17 05:33N 46°30' W 001°47'0 0.0
2014-Jul-17 04:33N 46°30' W 001°47'0 0.0
2014-Jul-17 03:34N 46°30' W 001°47'0 0.0
2014-Jul-17 02:33N 46°30' W 001°47'0 0.0
2014-Jul-17 01:33N 46°30' W 001°47'0 0.0
2014-Jul-17 00:33N 46°30' W 001°47'0 0.0
2014-Jul-16 23:34N 46°30' W 001°47'0 0.0
2014-Jul-16 22:33N 46°30' W 001°47'0 0.0
2014-Jul-16 21:33N 46°30' W 001°47'0 0.0
2014-Jul-16 20:34N 46°30' W 001°47'0 0.0
2014-Jul-16 19:33N 46°30' W 001°47'0 0.2
2014-Jul-16 18:33N 46°30' W 001°48'0 0.0
2014-Jul-16 17:34N 46°30' W 001°48'0 0.0
2014-Jul-16 16:34N 46°30' W 001°48'0 0.0
2014-Jul-16 15:33N 46°30' W 001°48'0 0.0
2014-Jul-16 14:34N 46°30' W 001°48'0 0.0
2014-Jul-16 13:33N 46°30' W 001°48'0 0.0
2014-Jul-16 12:34N 46°30' W 001°48'0 0.0
2014-Jul-16 11:33N 46°30' W 001°48'0 0.0
2014-Jul-16 10:34N 46°30' W 001°48'0 0.1
2014-Jul-16 09:34N 46°30' W 001°47'0 0.1
2014-Jul-16 08:33N 46°30' W 001°47'0 0.0
2014-Jul-16 07:34N 46°30' W 001°47'0 0.0
2014-Jul-16 06:34N 46°30' W 001°47'2 1.6
2014-Jul-16 05:33N 46°28' W 001°47'8 7.8
2014-Jul-16 04:34N 46°21' W 001°43'9 8.6
2014-Jul-16 03:33N 46°13' W 001°38'8 1.4
2014-Jul-15 22:11N 46°07' W 001°32'9 4.6
2014-Jul-15 20:14N 46°14' W 001°38'7 9.9
2014-Jul-15 19:33N 46°20' W 001°42'10 9.8
2014-Jul-15 18:34N 46°29' W 001°48'0 0.5
2014-Jul-15 17:34N 46°30' W 001°48'0 0.0
2014-Jul-15 16:34N 46°30' W 001°48'0 0.0
2014-Jul-15 15:33N 46°30' W 001°48'0 0.0
2014-Jul-15 14:33N 46°30' W 001°48'0 0.0
2014-Jul-15 13:33N 46°30' W 001°48'0 0.0
2014-Jul-15 12:33N 46°30' W 001°48'0 0.0
2014-Jul-15 11:33N 46°30' W 001°48'0 0.0
2014-Jul-15 10:33N 46°30' W 001°48'0 0.0
2014-Jul-15 09:33N 46°30' W 001°48'0 0.0
2014-Jul-15 08:33N 46°30' W 001°48'0 0.0
2014-Jul-15 07:33N 46°30' W 001°48'0 0.0
2014-Jul-15 06:33N 46°30' W 001°48'0 0.0
2014-Jul-13 20:33N 46°30' W 001°47'0 0.0
2014-Jul-13 19:33N 46°30' W 001°47'0 0.0
2014-Jul-13 18:33N 46°30' W 001°47'0 0.0
2014-Jul-13 17:33N 46°30' W 001°47'0 0.0
2014-Jul-13 16:33N 46°30' W 001°47'0 0.0
2014-Jul-13 15:33N 46°30' W 001°47'0 0.0
2014-Jul-13 14:33N 46°30' W 001°47'0 0.0
2014-Jul-13 13:33N 46°30' W 001°47'0 0.0
2014-Jul-13 12:33N 46°30' W 001°47'0 0.0
2014-Jul-13 11:33N 46°30' W 001°47'0 0.0
2014-Jul-13 10:33N 46°30' W 001°47'0 0.0
2014-Jul-13 09:33N 46°30' W 001°47'0 0.0
2014-Jul-13 08:33N 46°30' W 001°47'0 0.0
2014-Jul-13 07:33N 46°30' W 001°47'0 0.0
2014-Jul-13 06:33N 46°30' W 001°47'0 0.0
2014-Jul-13 05:33N 46°30' W 001°47'0 0.0
2014-Jul-13 04:33N 46°30' W 001°47'0 0.0
2014-Jul-13 03:33N 46°30' W 001°47'0 0.0
2014-Jul-13 02:33N 46°30' W 001°47'0 0.0
2014-Jul-13 01:33N 46°30' W 001°47'0 0.0
2014-Jul-13 00:34N 46°30' W 001°47'0 0.0
2014-Jul-12 23:33N 46°30' W 001°47'0 0.0
2014-Jul-12 22:33N 46°30' W 001°47'0 0.0
2014-Jul-12 21:33N 46°30' W 001°47'0 0.0
2014-Jul-12 20:33N 46°30' W 001°47'0 0.0
2014-Jul-12 19:33N 46°30' W 001°47'0 0.0
2014-Jul-12 18:33N 46°30' W 001°47'0 0.0
2014-Jul-12 17:33N 46°30' W 001°47'0 0.0
2014-Jul-12 16:33N 46°30' W 001°47'0 0.0
2014-Jul-12 15:33N 46°30' W 001°47'0 0.0
2014-Jul-12 14:33N 46°30' W 001°47'0 0.0
2014-Jul-12 13:33N 46°30' W 001°47'0 0.0
2014-Jul-12 12:33N 46°30' W 001°47'0 0.0
2014-Jul-12 11:33N 46°30' W 001°47'0 0.0
2014-Jul-12 10:33N 46°30' W 001°47'0 0.0
2014-Jul-12 09:33N 46°30' W 001°47'0 0.0
2014-Jul-12 08:33N 46°30' W 001°47'0 0.0
2014-Jul-12 07:33N 46°30' W 001°47'0 0.0
2014-Jul-12 06:33N 46°30' W 001°47'0 0.0
2014-Jul-12 05:33N 46°30' W 001°47'0 0.0
2014-Jul-12 04:33N 46°30' W 001°47'0 0.0
2014-Jul-12 03:33N 46°30' W 001°47'0 0.0
2014-Jul-12 02:33N 46°30' W 001°47'0 0.0
2014-Jul-12 01:33N 46°30' W 001°47'0 0.0
2014-Jul-12 00:33N 46°30' W 001°47'0 0.0
2014-Jul-11 23:33N 46°30' W 001°47'0 0.0
2014-Jul-11 22:33N 46°30' W 001°47'0 0.0
2014-Jul-11 21:33N 46°30' W 001°47'0 0.0
2014-Jul-11 20:33N 46°30' W 001°47'0 0.0
2014-Jul-11 19:33N 46°30' W 001°47'0 0.0
2014-Jul-11 18:33N 46°30' W 001°47'0 0.0
2014-Jul-11 17:33N 46°30' W 001°47'0 0.0
2014-Jul-11 16:33N 46°30' W 001°47'0 0.0
2014-Jul-11 15:33N 46°30' W 001°47'0 0.0
2014-Jul-11 14:33N 46°30' W 001°47'0 0.1
2014-Jul-11 13:33N 46°30' W 001°47'0 0.0
2014-Jul-11 12:33N 46°30' W 001°47'0 0.0
2014-Jul-11 11:33N 46°30' W 001°47'2 2.3
2014-Jul-11 10:33N 46°28' W 001°48'9 9.4
2014-Jul-11 09:33N 46°23' W 002°01'9 7.8
2014-Jul-11 08:27N 46°27' W 002°12'1 0.7
2014-Jul-11 06:33N 46°28' W 002°13'1010.1
2014-Jul-11 05:33N 46°28' W 001°59'6 6.0
2014-Jul-11 04:33N 46°31' W 001°52'  
Track history (hours):
 
Tides and Currents Weather Stations Pressure Air Temp Water Temp Dewpoint Dewpoint Depression Visibility Wind Speed Wind Dir Waves Ship Positions

F/V Renaissance II

Last reported at 2014-Jul-17 06:10 UTC. Time now 2014-Jul-23 01:11 UTC.
Position N 46°30' W 001°47'.

Length 18 m.

Type: Fishing. MMSI: 228216600.

Date/timePositionNaut miles runAvg speedWind from/ knotsBaromVisibWave heightAir tempDewpointWater temp
2014-Jul-17 06:10N 46°30' W 001°47'0 0.0
2014-Jul-17 05:33N 46°30' W 001°47'0 0.0
2014-Jul-17 04:33N 46°30' W 001°47'0 0.0
2014-Jul-17 03:34N 46°30' W 001°47'0 0.0
2014-Jul-17 02:33N 46°30' W 001°47'0 0.0
2014-Jul-17 01:33N 46°30' W 001°47'0 0.0
2014-Jul-17 00:33N 46°30' W 001°47'0 0.0
2014-Jul-16 23:34N 46°30' W 001°47'0 0.0
2014-Jul-16 22:33N 46°30' W 001°47'0 0.0
2014-Jul-16 21:33N 46°30' W 001°47'0 0.0
2014-Jul-16 20:34N 46°30' W 001°47'0 0.0
2014-Jul-16 19:33N 46°30' W 001°47'0 0.2
2014-Jul-16 18:33N 46°30' W 001°48'0 0.0
2014-Jul-16 17:34N 46°30' W 001°48'0 0.0
2014-Jul-16 16:34N 46°30' W 001°48'0 0.0
2014-Jul-16 15:33N 46°30' W 001°48'0 0.0
2014-Jul-16 14:34N 46°30' W 001°48'0 0.0
2014-Jul-16 13:33N 46°30' W 001°48'0 0.0
2014-Jul-16 12:34N 46°30' W 001°48'0 0.0
2014-Jul-16 11:33N 46°30' W 001°48'0 0.0
2014-Jul-16 10:34N 46°30' W 001°48'0 0.1
2014-Jul-16 09:34N 46°30' W 001°47'0 0.1
2014-Jul-16 08:33N 46°30' W 001°47'0 0.0
2014-Jul-16 07:34N 46°30' W 001°47'0 0.0
2014-Jul-16 06:34N 46°30' W 001°47'2 1.6
2014-Jul-16 05:33N 46°28' W 001°47'8 7.8
2014-Jul-16 04:34N 46°21' W 001°43'9 8.6
2014-Jul-16 03:33N 46°13' W 001°38'8 1.4
2014-Jul-15 22:11N 46°07' W 001°32'9 4.6
2014-Jul-15 20:14N 46°14' W 001°38'7 9.9
2014-Jul-15 19:33N 46°20' W 001°42'10 9.8
2014-Jul-15 18:34N 46°29' W 001°48'0 0.5
2014-Jul-15 17:34N 46°30' W 001°48'0 0.0
2014-Jul-15 16:34N 46°30' W 001°48'0 0.0
2014-Jul-15 15:33N 46°30' W 001°48'0 0.0
2014-Jul-15 14:33N 46°30' W 001°48'0 0.0
2014-Jul-15 13:33N 46°30' W 001°48'0 0.0
2014-Jul-15 12:33N 46°30' W 001°48'0 0.0
2014-Jul-15 11:33N 46°30' W 001°48'0 0.0
2014-Jul-15 10:33N 46°30' W 001°48'0 0.0
2014-Jul-15 09:33N 46°30' W 001°48'0 0.0
2014-Jul-15 08:33N 46°30' W 001°48'0 0.0
2014-Jul-15 07:33N 46°30' W 001°48'0 0.0
2014-Jul-15 06:33N 46°30' W 001°48'0 0.0
2014-Jul-13 20:33N 46°30' W 001°47'0 0.0
2014-Jul-13 19:33N 46°30' W 001°47'0 0.0
2014-Jul-13 18:33N 46°30' W 001°47'0 0.0
2014-Jul-13 17:33N 46°30' W 001°47'0 0.0
2014-Jul-13 16:33N 46°30' W 001°47'0 0.0
2014-Jul-13 15:33N 46°30' W 001°47'0 0.0
2014-Jul-13 14:33N 46°30' W 001°47'0 0.0
2014-Jul-13 13:33N 46°30' W 001°47'0 0.0
2014-Jul-13 12:33N 46°30' W 001°47'0 0.0
2014-Jul-13 11:33N 46°30' W 001°47'0 0.0
2014-Jul-13 10:33N 46°30' W 001°47'0 0.0
2014-Jul-13 09:33N 46°30' W 001°47'0 0.0
2014-Jul-13 08:33N 46°30' W 001°47'0 0.0
2014-Jul-13 07:33N 46°30' W 001°47'0 0.0
2014-Jul-13 06:33N 46°30' W 001°47'0 0.0
2014-Jul-13 05:33N 46°30' W 001°47'0 0.0
2014-Jul-13 04:33N 46°30' W 001°47'0 0.0
2014-Jul-13 03:33N 46°30' W 001°47'0 0.0
2014-Jul-13 02:33N 46°30' W 001°47'0 0.0
2014-Jul-13 01:33N 46°30' W 001°47'0 0.0
2014-Jul-13 00:34N 46°30' W 001°47'0 0.0
2014-Jul-12 23:33N 46°30' W 001°47'0 0.0
2014-Jul-12 22:33N 46°30' W 001°47'0 0.0
2014-Jul-12 21:33N 46°30' W 001°47'0 0.0
2014-Jul-12 20:33N 46°30' W 001°47'0 0.0
2014-Jul-12 19:33N 46°30' W 001°47'0 0.0
2014-Jul-12 18:33N 46°30' W 001°47'0 0.0
2014-Jul-12 17:33N 46°30' W 001°47'0 0.0
2014-Jul-12 16:33N 46°30' W 001°47'0 0.0
2014-Jul-12 15:33N 46°30' W 001°47'0 0.0
2014-Jul-12 14:33N 46°30' W 001°47'0 0.0
2014-Jul-12 13:33N 46°30' W 001°47'0 0.0
2014-Jul-12 12:33N 46°30' W 001°47'0 0.0
2014-Jul-12 11:33N 46°30' W 001°47'0 0.0
2014-Jul-12 10:33N 46°30' W 001°47'0 0.0
2014-Jul-12 09:33N 46°30' W 001°47'0 0.0
2014-Jul-12 08:33N 46°30' W 001°47'0 0.0
2014-Jul-12 07:33N 46°30' W 001°47'0 0.0
2014-Jul-12 06:33N 46°30' W 001°47'0 0.0
2014-Jul-12 05:33N 46°30' W 001°47'0 0.0
2014-Jul-12 04:33N 46°30' W 001°47'0 0.0
2014-Jul-12 03:33N 46°30' W 001°47'0 0.0
2014-Jul-12 02:33N 46°30' W 001°47'0 0.0
2014-Jul-12 01:33N 46°30' W 001°47'0 0.0
2014-Jul-12 00:33N 46°30' W 001°47'0 0.0
2014-Jul-11 23:33N 46°30' W 001°47'0 0.0
2014-Jul-11 22:33N 46°30' W 001°47'0 0.0
2014-Jul-11 21:33N 46°30' W 001°47'0 0.0
2014-Jul-11 20:33N 46°30' W 001°47'0 0.0
2014-Jul-11 19:33N 46°30' W 001°47'0 0.0
2014-Jul-11 18:33N 46°30' W 001°47'0 0.0
2014-Jul-11 17:33N 46°30' W 001°47'0 0.0
2014-Jul-11 16:33N 46°30' W 001°47'0 0.0
2014-Jul-11 15:33N 46°30' W 001°47'0 0.0
2014-Jul-11 14:33N 46°30' W 001°47'0 0.1
2014-Jul-11 13:33N 46°30' W 001°47'0 0.0
2014-Jul-11 12:33N 46°30' W 001°47'0 0.0
2014-Jul-11 11:33N 46°30' W 001°47'2 2.3
2014-Jul-11 10:33N 46°28' W 001°48'9 9.4
2014-Jul-11 09:33N 46°23' W 002°01'9 7.8
2014-Jul-11 08:27N 46°27' W 002°12'1 0.7
2014-Jul-11 06:33N 46°28' W 002°13'1010.1
2014-Jul-11 05:33N 46°28' W 001°59'6 6.0
2014-Jul-11 04:33N 46°31' W 001°52'  

Dump ship's entire track history